createdAt,value
2019-05-20T00:02:03.795Z,71.19
2019-05-20T00:04:33.504Z,71.30
2019-05-20T00:07:03.953Z,71.17
2019-05-20T00:09:33.458Z,71.33
2019-05-20T00:12:03.475Z,71.50
2019-05-20T00:14:32.939Z,71.64
2019-05-20T00:17:02.567Z,71.71
2019-05-20T00:19:32.404Z,71.52
2019-05-20T00:22:02.142Z,71.93
2019-05-20T00:24:31.723Z,72.36
2019-05-20T00:27:01.695Z,72.62
2019-05-20T00:29:31.495Z,72.57
2019-05-20T00:32:01.341Z,73.14
2019-05-20T00:34:35.540Z,73.50
2019-05-20T00:37:04.250Z,73.79
2019-05-20T00:39:33.917Z,74.09
2019-05-20T00:42:03.643Z,74.28
2019-05-20T00:44:33.073Z,74.47
2019-05-20T00:47:02.727Z,74.91
2019-05-20T00:49:32.138Z,74.84
2019-05-20T00:52:02.033Z,74.83
2019-05-20T00:54:31.536Z,74.92
2019-05-20T00:57:01.386Z,75.11
2019-05-20T00:59:31.481Z,75.24
2019-05-20T01:02:01.294Z,75.58
2019-05-20T01:04:31.065Z,75.84
2019-05-20T01:07:01.157Z,76.08
2019-05-20T01:09:30.991Z,76.28
2019-05-20T01:12:01.535Z,76.62
2019-05-20T01:14:31.821Z,76.75
2019-05-20T01:17:01.674Z,77.07
2019-05-20T01:19:31.657Z,77.24
2019-05-20T01:22:01.702Z,77.57
2019-05-20T01:24:31.510Z,77.93
2019-05-20T01:27:03.675Z,78.22
2019-05-20T01:29:33.098Z,78.49
2019-05-20T01:32:02.619Z,78.79
2019-05-20T01:34:32.523Z,79.46
2019-05-20T01:37:02.127Z,80.19
2019-05-20T01:39:31.811Z,80.54
2019-05-20T01:42:01.928Z,80.83
2019-05-20T01:44:31.767Z,81.31
2019-05-20T01:47:01.533Z,82.64
2019-05-20T01:49:31.716Z,83.18
2019-05-20T01:52:04.475Z,83.79
2019-05-20T01:54:34.510Z,84.05
2019-05-20T01:57:04.022Z,84.21
2019-05-20T01:59:33.590Z,84.27
2019-05-20T02:02:04.354Z,84.60
2019-05-20T02:04:33.842Z,84.77
2019-05-20T02:07:03.428Z,84.53
2019-05-20T02:09:33.257Z,84.99
2019-05-20T02:12:03.073Z,85.66
2019-05-20T02:14:36.600Z,86.18
2019-05-20T02:17:06.287Z,87.18
2019-05-20T02:19:36.093Z,87.40
2019-05-20T02:22:05.749Z,87.24
2019-05-20T02:24:35.463Z,86.73
2019-05-20T02:27:04.978Z,86.40
2019-05-20T02:29:34.649Z,86.76
2019-05-20T02:32:04.224Z,86.78
2019-05-20T02:34:33.800Z,87.03
2019-05-20T02:37:03.673Z,86.93
2019-05-20T02:39:33.194Z,87.27
2019-05-20T02:42:02.653Z,87.14
2019-05-20T02:44:32.408Z,87.45
2019-05-20T02:47:01.895Z,87.64
2019-05-20T02:49:31.834Z,87.88
2019-05-20T02:52:04.746Z,87.90
2019-05-20T02:54:34.267Z,88.09
2019-05-20T02:57:03.883Z,88.00
2019-05-20T02:59:33.569Z,88.20
2019-05-20T03:02:03.035Z,88.34
2019-05-20T03:04:32.499Z,88.38
2019-05-20T03:07:02.219Z,88.32
2019-05-20T03:09:31.640Z,88.47
2019-05-20T03:12:01.480Z,88.35
2019-05-20T03:14:31.422Z,88.45
2019-05-20T03:17:03.485Z,88.40
2019-05-20T03:19:33.278Z,88.59
2019-05-20T03:22:02.807Z,89.00
2019-05-20T03:24:32.593Z,88.98
2019-05-20T03:27:02.724Z,89.27
2019-05-20T03:29:32.205Z,89.57
2019-05-20T03:32:01.764Z,89.97
2019-05-20T03:34:47.610Z,89.91
2019-05-20T03:37:03.231Z,90.05
2019-05-20T03:39:32.898Z,89.80
2019-05-20T03:42:02.415Z,90.13
2019-05-20T03:44:32.038Z,90.30
2019-05-20T03:47:02.243Z,90.23
2019-05-20T03:49:31.785Z,90.30
2019-05-20T03:52:01.537Z,90.28
2019-05-20T03:54:31.540Z,90.35
2019-05-20T03:57:01.647Z,90.35
2019-05-20T03:59:34.454Z,90.26
2019-05-20T04:02:03.975Z,90.21
2019-05-20T04:04:33.522Z,90.15
2019-05-20T04:07:03.180Z,90.16
2019-05-20T04:09:32.566Z,90.11
2019-05-20T04:12:02.488Z,89.98
2019-05-20T04:14:32.375Z,89.96
2019-05-20T04:17:01.960Z,89.98
2019-05-20T04:19:31.579Z,89.90
2019-05-20T04:22:01.893Z,89.93
2019-05-20T04:24:31.883Z,89.83
2019-05-20T04:27:02.077Z,89.82
2019-05-20T04:29:31.826Z,89.73
2019-05-20T04:32:01.810Z,89.75
2019-05-20T04:34:32.390Z,89.82
2019-05-20T04:37:02.277Z,89.75
2019-05-20T04:39:31.979Z,89.66
2019-05-20T04:42:01.525Z,89.66
2019-05-20T04:44:31.743Z,89.62
2019-05-20T04:47:01.573Z,89.59
2019-05-20T04:49:31.929Z,89.65
2019-05-20T04:52:01.785Z,89.77
2019-05-20T04:54:31.663Z,89.65
2019-05-20T04:57:01.681Z,89.64
2019-05-20T04:59:34.360Z,89.54
2019-05-20T05:02:03.880Z,89.60
2019-05-20T05:04:33.463Z,89.50
2019-05-20T05:07:03.305Z,89.29
2019-05-20T05:09:32.881Z,89.26
2019-05-20T05:12:02.566Z,89.37
2019-05-20T05:14:32.664Z,89.34
2019-05-20T05:17:02.450Z,89.22
2019-05-20T05:19:32.190Z,89.18
2019-05-20T05:22:02.442Z,89.21
2019-05-20T05:24:32.125Z,89.24
2019-05-20T05:27:01.713Z,89.15
2019-05-20T05:29:34.395Z,89.04
2019-05-20T05:32:03.979Z,88.89
2019-05-20T05:34:33.638Z,89.03
2019-05-20T05:37:03.308Z,89.04
2019-05-20T05:39:32.971Z,89.08
2019-05-20T05:42:02.908Z,88.92
2019-05-20T05:44:32.527Z,88.88
2019-05-20T05:47:02.129Z,88.79
2019-05-20T05:49:31.717Z,88.85
2019-05-20T05:52:04.764Z,88.84
2019-05-20T05:54:34.210Z,89.03
2019-05-20T05:57:03.864Z,89.15
2019-05-20T05:59:33.454Z,89.21
2019-05-20T06:02:03.934Z,89.11
2019-05-20T06:04:33.667Z,89.35
2019-05-20T06:07:03.316Z,89.41
2019-05-20T06:09:32.949Z,89.41
2019-05-20T06:12:02.955Z,89.40
2019-05-20T06:14:32.904Z,89.41
2019-05-20T06:17:02.564Z,89.48
2019-05-20T06:19:32.198Z,89.39
2019-05-20T06:22:02.002Z,89.13
2019-05-20T06:24:31.708Z,89.22
2019-05-20T06:27:01.767Z,89.21
2019-05-20T06:29:31.754Z,89.24
2019-05-20T06:32:01.524Z,89.30
2019-05-20T06:34:31.378Z,89.22
2019-05-20T06:37:06.089Z,89.23
2019-05-20T06:39:35.723Z,89.16
2019-05-20T06:42:05.298Z,89.04
2019-05-20T06:44:51.418Z,88.95
2019-05-20T06:47:06.241Z,88.86
2019-05-20T06:49:35.998Z,88.54
2019-05-20T06:52:05.561Z,88.34
2019-05-20T06:54:35.059Z,88.34
2019-05-20T06:57:04.946Z,88.28
2019-05-20T06:59:34.565Z,88.29
2019-05-20T07:02:04.177Z,88.18
2019-05-20T07:04:34.112Z,87.50
2019-05-20T07:07:12.470Z,87.66
2019-05-20T07:09:35.145Z,87.98
2019-05-20T07:12:04.776Z,87.43
2019-05-20T07:14:34.205Z,87.60
2019-05-20T07:17:03.843Z,87.15
2019-05-20T07:19:33.313Z,87.17
2019-05-20T07:22:02.992Z,87.35
2019-05-20T07:24:32.555Z,87.26
2019-05-20T07:27:02.333Z,87.08
2019-05-20T07:29:31.960Z,86.77
2019-05-20T07:32:01.877Z,86.57
2019-05-20T07:34:31.738Z,86.36
2019-05-20T07:37:03.558Z,86.39
2019-05-20T07:39:32.944Z,86.16
2019-05-20T07:42:02.415Z,86.11
2019-05-20T07:44:32.040Z,85.66
2019-05-20T07:47:02.328Z,85.47
2019-05-20T07:49:32.300Z,85.22
2019-05-20T07:52:01.997Z,85.10
2019-05-20T07:54:32.041Z,84.94
2019-05-20T07:57:05.707Z,85.05
2019-05-20T07:59:37.709Z,85.12
2019-05-20T08:02:07.524Z,85.14
2019-05-20T08:04:37.552Z,85.05
2019-05-20T08:07:26.816Z,84.87
2019-05-20T08:09:45.291Z,84.82
2019-05-20T08:12:10.557Z,84.18
2019-05-20T08:14:40.194Z,83.94
2019-05-20T08:17:09.824Z,83.59
2019-05-20T08:19:39.570Z,83.14
2019-05-20T08:22:09.269Z,82.95
2019-05-20T08:24:39.038Z,82.81
2019-05-20T08:27:08.844Z,82.54
2019-05-20T08:29:38.298Z,82.01
2019-05-20T08:32:08.080Z,81.90
2019-05-20T08:34:39.032Z,81.60
2019-05-20T08:37:09.721Z,81.45
2019-05-20T08:39:39.759Z,81.15
2019-05-20T08:42:09.356Z,81.09
2019-05-20T08:44:39.044Z,80.95
2019-05-20T08:47:08.739Z,80.50
2019-05-20T08:49:38.658Z,80.46
2019-05-20T08:52:08.487Z,80.35
2019-05-20T08:54:40.445Z,80.12
2019-05-20T08:57:09.559Z,79.90
2019-05-20T08:59:39.376Z,79.59
2019-05-20T09:02:08.996Z,79.36
2019-05-20T09:04:38.837Z,79.34
2019-05-20T09:07:08.904Z,78.96
2019-05-20T09:09:38.475Z,78.39
2019-05-20T09:12:08.424Z,78.39
2019-05-20T09:14:40.472Z,78.46
2019-05-20T09:17:09.781Z,78.35
2019-05-20T09:19:39.662Z,78.09
2019-05-20T09:22:09.305Z,77.84
2019-05-20T09:24:39.082Z,77.50
2019-05-20T09:27:08.962Z,76.97
2019-05-20T09:29:38.475Z,76.77
2019-05-20T09:32:08.312Z,76.80
2019-05-20T09:34:38.297Z,76.62
2019-05-20T09:37:08.116Z,76.37
2019-05-20T09:39:37.759Z,76.15
2019-05-20T09:42:07.753Z,76.02
2019-05-20T09:44:37.456Z,75.56
2019-05-20T09:47:07.077Z,75.26
2019-05-20T09:49:36.874Z,74.91
2019-05-20T09:52:06.473Z,74.72
2019-05-20T09:54:36.214Z,74.23
2019-05-20T09:57:05.958Z,73.50
2019-05-20T09:59:43.214Z,72.77
2019-05-20T10:02:07.168Z,72.87
2019-05-20T10:04:36.890Z,72.57
2019-05-20T10:07:06.538Z,72.33
2019-05-20T10:09:36.320Z,71.94
2019-05-20T10:12:06.069Z,71.67
2019-05-20T10:14:35.771Z,71.10
2019-05-20T10:17:05.703Z,70.93
2019-05-20T10:19:35.263Z,71.13
2019-05-20T10:22:04.911Z,71.56
2019-05-20T10:24:34.483Z,71.39
2019-05-20T10:27:04.169Z,71.70
2019-05-20T10:29:34.007Z,71.75
2019-05-20T10:32:03.865Z,71.55
2019-05-20T10:34:37.180Z,71.44
2019-05-20T10:37:05.061Z,71.47
2019-05-20T10:39:34.513Z,71.29
2019-05-20T10:42:04.084Z,71.18
2019-05-20T10:44:33.859Z,71.19
2019-05-20T10:47:03.649Z,71.01
2019-05-20T10:49:33.210Z,71.06
2019-05-20T10:52:03.244Z,71.06
2019-05-20T10:54:32.799Z,71.09
2019-05-20T10:57:02.222Z,70.98
2019-05-20T10:59:32.006Z,70.69
2019-05-20T11:02:01.734Z,70.84
2019-05-20T11:04:35.298Z,70.72
2019-05-20T11:07:03.184Z,70.29
2019-05-20T11:09:32.726Z,70.31
2019-05-20T11:12:02.468Z,70.12
2019-05-20T11:14:32.273Z,70.04
2019-05-20T11:17:01.818Z,70.19
2019-05-20T11:19:31.648Z,69.63
2019-05-20T11:22:08.311Z,69.02
2019-05-20T11:24:38.839Z,68.61
2019-05-20T11:27:09.468Z,68.42
2019-05-20T11:29:39.374Z,67.93
2019-05-20T11:32:09.611Z,67.49
2019-05-20T11:34:42.061Z,67.38
2019-05-20T11:37:12.647Z,66.91
2019-05-20T11:39:44.342Z,67.34
2019-05-20T11:42:14.758Z,67.45
2019-05-20T11:44:44.547Z,67.51
2019-05-20T11:47:17.939Z,67.57
2019-05-20T11:49:51.559Z,67.69
2019-05-20T11:52:21.732Z,67.60
2019-05-20T11:54:51.440Z,67.73
2019-05-20T11:57:21.701Z,67.69
2019-05-20T11:59:52.865Z,67.85
2019-05-20T12:02:25.147Z,68.15
2019-05-20T12:04:58.383Z,68.04
2019-05-20T12:07:29.565Z,68.31
2019-05-20T12:09:59.624Z,68.07
2019-05-20T12:12:30.683Z,68.08
2019-05-20T12:15:01.229Z,68.10
2019-05-20T12:17:36.784Z,68.11
2019-05-20T12:20:08.861Z,68.30
2019-05-20T12:22:39.935Z,68.20
2019-05-20T12:25:09.793Z,68.13
2019-05-20T12:27:39.887Z,67.85
2019-05-20T12:30:10.537Z,67.56
2019-05-20T12:32:42.677Z,67.49
2019-05-20T12:35:18.505Z,67.46
2019-05-20T12:37:48.562Z,67.25
2019-05-20T12:40:19.087Z,67.16
2019-05-20T12:42:48.667Z,67.38
2019-05-20T12:45:19.239Z,67.10
2019-05-20T12:47:48.851Z,66.98
2019-05-20T12:50:18.823Z,66.99
2019-05-20T12:52:48.558Z,67.08
2019-05-20T12:55:18.402Z,67.28
2019-05-20T12:57:48.233Z,67.60
2019-05-20T13:00:18.910Z,67.73
2019-05-20T13:02:48.782Z,67.70
2019-05-20T13:05:20.115Z,67.73
2019-05-20T13:07:55.818Z,67.86
2019-05-20T13:10:30.269Z,68.84
2019-05-20T13:12:57.367Z,70.21
2019-05-20T13:15:27.536Z,70.89
2019-05-20T13:17:58.215Z,71.61
2019-05-20T13:20:28.713Z,72.12
2019-05-20T13:22:58.459Z,72.23
2019-05-20T13:25:29.730Z,72.37
2019-05-20T13:27:59.497Z,72.35
2019-05-20T13:30:32.383Z,72.75
2019-05-20T13:33:02.146Z,73.10
2019-05-20T13:35:31.909Z,73.38
2019-05-20T13:38:04.588Z,73.57
2019-05-20T13:40:45.963Z,74.16
2019-05-20T13:43:06.400Z,74.51
2019-05-20T13:45:36.367Z,74.74
2019-05-20T13:48:06.166Z,74.66
2019-05-20T13:50:36.196Z,74.75
2019-05-20T13:53:05.979Z,75.00
2019-05-20T13:55:35.479Z,74.81
2019-05-20T13:58:05.337Z,74.59
2019-05-20T14:00:35.197Z,75.14
2019-05-20T14:03:05.063Z,74.62
2019-05-20T14:05:34.896Z,73.74
2019-05-20T14:08:04.432Z,73.31
2019-05-20T14:10:34.167Z,73.60
2019-05-20T14:13:03.907Z,73.62
2019-05-20T14:15:33.423Z,73.22
2019-05-20T14:18:03.101Z,72.69
2019-05-20T14:20:32.821Z,72.69
2019-05-20T14:23:02.397Z,72.53
2019-05-20T14:25:31.838Z,72.44
2019-05-20T14:28:01.863Z,73.65
2019-05-20T14:30:31.643Z,74.06
2019-05-20T14:33:01.636Z,73.26
2019-05-20T14:35:31.895Z,73.91
2019-05-20T14:38:01.735Z,73.75
2019-05-20T14:40:31.503Z,74.25
2019-05-20T14:43:01.659Z,74.50
2019-05-20T14:45:31.518Z,74.79
2019-05-20T14:48:01.892Z,74.98
2019-05-20T14:50:34.974Z,75.13
2019-05-20T14:53:04.870Z,74.91
2019-05-20T14:55:42.334Z,75.29
2019-05-20T14:58:07.159Z,75.54
2019-05-20T15:00:37.082Z,75.41
2019-05-20T15:03:06.694Z,75.08
2019-05-20T15:05:36.952Z,74.88
2019-05-20T15:08:06.510Z,74.81
2019-05-20T15:10:36.093Z,75.07
2019-05-20T15:13:06.286Z,75.12
2019-05-20T15:15:36.192Z,74.78
2019-05-20T15:18:05.740Z,74.91
2019-05-20T15:20:35.700Z,74.86
2019-05-20T15:23:05.470Z,74.70
2019-05-20T15:25:35.178Z,74.27
2019-05-20T15:28:05.332Z,73.99
2019-05-20T15:30:35.299Z,73.59
2019-05-20T15:33:04.995Z,73.81
2019-05-20T15:35:34.768Z,73.61
2019-05-20T15:38:04.780Z,73.45
2019-05-20T15:40:34.663Z,73.97
2019-05-20T15:43:04.329Z,73.87
2019-05-20T15:45:34.048Z,73.74
2019-05-20T15:48:03.829Z,73.52
2019-05-20T15:50:33.767Z,73.40
2019-05-20T15:53:03.833Z,73.51
2019-05-20T15:55:33.870Z,73.45
2019-05-20T15:58:08.910Z,73.06
2019-05-20T16:00:38.851Z,72.55
2019-05-20T16:03:08.484Z,72.67
2019-05-20T16:05:38.544Z,72.47
2019-05-20T16:08:08.746Z,73.07
2019-05-20T16:10:38.331Z,72.97
2019-05-20T16:13:08.170Z,72.64
2019-05-20T16:15:38.035Z,72.89
2019-05-20T16:18:15.409Z,72.96
2019-05-20T16:20:45.003Z,72.79
2019-05-20T16:23:15.438Z,72.54
2019-05-20T16:25:45.466Z,72.38
2019-05-20T16:28:15.637Z,71.94
2019-05-20T16:30:45.597Z,71.92
2019-05-20T16:33:22.141Z,72.24
2019-05-20T16:36:00.267Z,72.63
2019-05-20T16:39:09.260Z,72.61
2019-05-20T16:41:38.987Z,72.56
2019-05-20T16:44:09.040Z,72.85
2019-05-20T16:46:38.873Z,72.88
2019-05-20T16:49:15.403Z,72.80
2019-05-20T16:51:45.718Z,72.85
2019-05-20T16:54:15.659Z,72.76
2019-05-20T16:56:46.704Z,72.80
2019-05-20T16:59:16.433Z,72.93
2019-05-20T17:01:47.796Z,72.77
2019-05-20T17:04:20.422Z,72.82
2019-05-20T17:06:56.760Z,72.70
2019-05-20T17:09:29.017Z,72.97
2019-05-20T17:11:59.414Z,72.96
2019-05-20T17:14:30.968Z,73.12
2019-05-20T17:17:02.538Z,73.31
2019-05-20T17:19:36.132Z,73.75
2019-05-20T17:22:06.836Z,74.08
2019-05-20T17:24:36.465Z,74.49
2019-05-20T17:27:06.866Z,74.07
2019-05-20T17:29:37.001Z,74.32
2019-05-20T17:32:06.837Z,74.08
2019-05-20T17:34:37.071Z,74.25
2019-05-20T17:37:06.963Z,74.04
2019-05-20T17:39:36.756Z,74.24
2019-05-20T17:42:06.978Z,74.41
2019-05-20T17:44:36.941Z,74.34
2019-05-20T17:47:06.894Z,74.47
2019-05-20T17:49:36.775Z,74.56
2019-05-20T17:52:06.815Z,74.33
2019-05-20T17:54:36.973Z,74.23
2019-05-20T17:57:06.854Z,74.13
2019-05-20T17:59:40.036Z,74.17
2019-05-20T18:02:11.624Z,74.67
2019-05-20T18:04:41.470Z,74.52
2019-05-20T18:07:11.224Z,74.86
2019-05-20T18:09:44.226Z,74.88
2019-05-20T18:12:13.875Z,75.07
2019-05-20T18:14:45.335Z,75.42
2019-05-20T18:17:14.996Z,75.33
2019-05-20T18:19:44.916Z,75.23
2019-05-20T18:22:14.902Z,75.38
2019-05-20T18:24:44.456Z,75.26
2019-05-20T18:27:14.059Z,75.42
2019-05-20T18:29:44.015Z,75.64
2019-05-20T18:32:14.010Z,75.72
2019-05-20T18:34:43.932Z,75.73
2019-05-20T18:37:13.737Z,75.86
2019-05-20T18:39:43.831Z,76.29
2019-05-20T18:42:13.575Z,76.13
2019-05-20T18:44:43.371Z,76.47
2019-05-20T18:47:13.273Z,76.39
2019-05-20T18:49:43.253Z,76.69
2019-05-20T18:52:13.454Z,76.48
2019-05-20T18:54:43.646Z,76.46
2019-05-20T18:57:13.390Z,76.75
2019-05-20T18:59:43.388Z,76.79
2019-05-20T19:02:13.102Z,76.87
2019-05-20T19:04:43.340Z,76.92
2019-05-20T19:07:13.072Z,77.21
2019-05-20T19:09:42.710Z,77.17
2019-05-20T19:12:14.047Z,77.53
2019-05-20T19:14:43.910Z,77.63
2019-05-20T19:17:13.718Z,77.66
2019-05-20T19:19:43.500Z,77.72
2019-05-20T19:22:13.470Z,78.00
2019-05-20T19:24:43.114Z,78.19
2019-05-20T19:27:13.112Z,78.07
2019-05-20T19:29:43.054Z,78.06
2019-05-20T19:32:14.442Z,78.07
2019-05-20T19:34:44.335Z,78.10
2019-05-20T19:37:14.689Z,78.07
2019-05-20T19:39:44.350Z,77.99
2019-05-20T19:42:14.291Z,78.19
2019-05-20T19:44:45.005Z,78.28
2019-05-20T19:47:14.572Z,78.38
2019-05-20T19:49:44.340Z,78.71
2019-05-20T19:52:14.119Z,78.86
2019-05-20T19:54:43.805Z,79.02
2019-05-20T19:57:13.559Z,79.30
2019-05-20T19:59:43.628Z,79.45
2019-05-20T20:02:17.634Z,79.80
2019-05-20T20:04:44.940Z,79.87
2019-05-20T20:07:14.570Z,80.02
2019-05-20T20:09:44.459Z,80.24
2019-05-20T20:12:14.396Z,80.43
2019-05-20T20:14:44.082Z,80.63
2019-05-20T20:17:14.187Z,80.78
2019-05-20T20:19:44.065Z,80.91
2019-05-20T20:22:14.036Z,81.04
2019-05-20T20:24:43.980Z,81.23
2019-05-20T20:27:14.021Z,81.25
2019-05-20T20:29:43.948Z,81.36
2019-05-20T20:32:14.514Z,81.38
2019-05-20T20:34:44.427Z,81.54
2019-05-20T20:37:14.572Z,81.62
2019-05-20T20:39:45.175Z,81.69
2019-05-20T20:42:14.930Z,81.63
2019-05-20T20:44:44.636Z,81.66
2019-05-20T20:47:14.811Z,81.64
2019-05-20T20:49:44.473Z,81.68
2019-05-20T20:52:14.334Z,81.92
2019-05-20T20:54:44.323Z,81.81
2019-05-20T20:57:14.257Z,81.81
2019-05-20T20:59:44.087Z,81.81
2019-05-20T21:02:13.974Z,81.77
2019-05-20T21:04:43.657Z,81.81
2019-05-20T21:07:13.309Z,82.03
2019-05-20T21:09:43.447Z,82.19
2019-05-20T21:12:13.220Z,82.25
2019-05-20T21:14:42.971Z,82.36
2019-05-20T21:17:12.964Z,82.34
2019-05-20T21:19:45.199Z,82.35
2019-05-20T21:22:15.291Z,82.46
2019-05-20T21:24:45.065Z,82.58
2019-05-20T21:27:14.900Z,82.50
2019-05-20T21:29:44.871Z,82.58
2019-05-20T21:32:14.801Z,82.58
2019-05-20T21:34:44.532Z,82.67
2019-05-20T21:37:14.541Z,82.96
2019-05-20T21:39:44.254Z,82.95
2019-05-20T21:42:13.890Z,82.99
2019-05-20T21:44:43.783Z,82.90
2019-05-20T21:47:13.276Z,82.89
2019-05-20T21:49:42.943Z,82.91
2019-05-20T21:52:12.985Z,82.86
2019-05-20T21:54:42.595Z,82.81
2019-05-20T21:57:12.227Z,82.87
2019-05-20T21:59:42.154Z,82.84
2019-05-20T22:02:11.884Z,83.00
2019-05-20T22:04:41.460Z,82.99
2019-05-20T22:07:11.380Z,83.04
2019-05-20T22:09:40.836Z,83.04
2019-05-20T22:12:10.269Z,83.02
2019-05-20T22:14:40.251Z,83.04
2019-05-20T22:17:09.688Z,83.01
2019-05-20T22:19:39.177Z,82.99
2019-05-20T22:22:30.771Z,82.97
2019-05-20T22:25:00.473Z,82.98
2019-05-20T22:27:30.657Z,83.03
2019-05-20T22:30:00.752Z,82.94
2019-05-20T22:32:30.676Z,82.83
2019-05-20T22:35:00.573Z,82.85
2019-05-20T22:37:30.695Z,82.90
2019-05-20T22:40:00.532Z,82.92
2019-05-20T22:42:30.413Z,82.88
2019-05-20T22:45:00.716Z,82.84
2019-05-20T22:47:30.429Z,82.75
2019-05-20T22:50:00.314Z,82.63
2019-05-20T22:52:30.288Z,82.61
2019-05-20T22:55:02.086Z,82.73
2019-05-20T22:57:32.774Z,82.68
2019-05-20T23:00:02.579Z,82.82
2019-05-20T23:02:32.600Z,82.81
2019-05-20T23:05:05.376Z,82.79
2019-05-20T23:07:34.985Z,82.91
2019-05-20T23:10:04.593Z,82.91
2019-05-20T23:12:34.714Z,82.88
2019-05-20T23:15:04.336Z,82.94
2019-05-20T23:17:33.888Z,82.92
2019-05-20T23:20:03.772Z,82.96
2019-05-20T23:22:33.329Z,82.91
2019-05-20T23:25:02.909Z,82.82
2019-05-20T23:27:32.932Z,82.71
2019-05-20T23:30:02.613Z,82.69
2019-05-20T23:32:32.685Z,82.56
2019-05-20T23:35:05.641Z,82.54
2019-05-20T23:37:35.250Z,82.47
2019-05-20T23:40:04.991Z,82.45
2019-05-20T23:42:34.911Z,82.34
2019-05-20T23:45:04.898Z,82.30
2019-05-20T23:47:34.385Z,82.26
2019-05-20T23:50:04.372Z,82.36
2019-05-20T23:52:33.839Z,82.30
2019-05-20T23:55:03.370Z,82.35
2019-05-20T23:57:33.137Z,82.25
